createdAt,value
2023-01-01T00:00:46.670Z,49.58
2023-01-01T00:01:46.661Z,49.13
2023-01-01T00:02:46.597Z,51.53
2023-01-01T00:03:46.671Z,48.96
2023-01-01T00:04:46.591Z,50.34
2023-01-01T00:05:46.568Z,48.41
2023-01-01T00:06:46.569Z,45.42
2023-01-01T00:07:46.552Z,45.16
2023-01-01T00:08:46.607Z,51.72
2023-01-01T00:09:46.554Z,48.76
2023-01-01T00:10:46.521Z,43.87
2023-01-01T00:11:46.507Z,46.94
2023-01-01T00:12:46.506Z,47.15
2023-01-01T00:13:46.487Z,45.87
2023-01-01T00:14:46.490Z,47.26
2023-01-01T00:15:46.462Z,47.66
2023-01-01T00:16:46.483Z,43.89
2023-01-01T00:17:46.449Z,45.84
2023-01-01T00:18:46.439Z,48.46
2023-01-01T00:19:46.439Z,51.49
2023-01-01T00:20:46.423Z,49.66
2023-01-01T00:21:46.405Z,48.07
2023-01-01T00:22:55.457Z,50.21
2023-01-01T00:23:48.394Z,45.56
2023-01-01T00:24:46.390Z,47.19
2023-01-01T00:25:46.359Z,47.09
2023-01-01T00:26:46.351Z,49.21
2023-01-01T00:27:46.338Z,45.22
2023-01-01T00:28:46.341Z,47.36
2023-01-01T00:29:46.333Z,44.15
2023-01-01T00:30:46.308Z,47.67
2023-01-01T00:31:46.358Z,48.50
2023-01-01T00:32:55.992Z,45.78
2023-01-01T00:33:47.271Z,46.09
2023-01-01T00:34:46.344Z,42.89
2023-01-01T00:35:46.262Z,43.40
2023-01-01T00:36:46.244Z,45.03
2023-01-01T00:37:46.857Z,47.03
2023-01-01T00:38:47.225Z,49.06
2023-01-01T00:39:46.209Z,42.58
2023-01-01T00:40:46.207Z,46.15
2023-01-01T00:41:46.188Z,48.16
2023-01-01T00:42:46.172Z,47.50
2023-01-01T00:43:46.169Z,47.76
2023-01-01T00:44:46.184Z,45.93
2023-01-01T00:45:46.202Z,44.63
2023-01-01T00:46:46.140Z,50.11
2023-01-01T00:47:46.133Z,50.98
2023-01-01T00:48:46.132Z,47.79
2023-01-01T00:49:46.112Z,49.50
2023-01-01T00:50:46.127Z,48.10
2023-01-01T00:51:46.087Z,46.39
2023-01-01T00:52:46.079Z,48.66
2023-01-01T00:53:46.065Z,44.79
2023-01-01T00:54:46.056Z,41.65
2023-01-01T00:55:46.061Z,47.72
2023-01-01T00:56:46.050Z,45.43
2023-01-01T00:57:46.032Z,44.13
2023-01-01T00:58:46.016Z,42.59
2023-01-01T00:59:47.029Z,45.33
2023-01-01T01:00:45.992Z,45.69
2023-01-01T01:01:46.041Z,46.14
2023-01-01T01:02:46.104Z,47.63
2023-01-01T01:03:45.974Z,48.13
2023-01-01T01:04:45.953Z,43.62
2023-01-01T01:05:45.951Z,49.00
2023-01-01T01:06:45.938Z,52.11
2023-01-01T01:07:45.921Z,50.32
2023-01-01T01:08:45.923Z,44.60
2023-01-01T01:09:45.894Z,46.84
2023-01-01T01:10:45.900Z,49.70
2023-01-01T01:11:45.875Z,48.92
2023-01-01T01:12:45.867Z,43.05
2023-01-01T01:13:45.859Z,46.72
2023-01-01T01:14:45.839Z,47.62
2023-01-01T01:15:45.848Z,46.98
2023-01-01T01:16:45.857Z,46.57
2023-01-01T01:17:45.815Z,45.09
2023-01-01T01:18:45.828Z,40.38
2023-01-01T01:19:45.798Z,45.64
2023-01-01T01:20:45.793Z,47.63
2023-01-01T01:21:45.772Z,47.04
2023-01-01T01:22:45.766Z,48.26
2023-01-01T01:23:45.777Z,51.15
2023-01-01T01:24:45.747Z,42.87
2023-01-01T01:25:45.754Z,41.76
2023-01-01T01:26:45.727Z,42.63
2023-01-01T01:27:45.716Z,43.23
2023-01-01T01:28:49.696Z,39.11
2023-01-01T01:29:46.694Z,44.03
2023-01-01T01:30:45.739Z,38.97
2023-01-01T01:31:45.679Z,45.67
2023-01-01T01:32:45.661Z,42.18
2023-01-01T01:33:45.668Z,46.25
2023-01-01T01:34:45.652Z,46.21
2023-01-01T01:35:45.661Z,45.91
2023-01-01T01:36:45.627Z,45.92
2023-01-01T01:37:45.616Z,46.04
2023-01-01T01:38:45.606Z,43.65
2023-01-01T01:39:49.063Z,43.25
2023-01-01T01:40:47.594Z,43.09
2023-01-01T01:41:45.576Z,46.64
2023-01-01T01:42:45.561Z,43.64
2023-01-01T01:43:45.552Z,46.12
2023-01-01T01:44:45.574Z,40.26
2023-01-01T01:45:45.576Z,42.36
2023-01-01T01:46:45.530Z,46.37
2023-01-01T01:47:45.513Z,44.42
2023-01-01T01:48:45.500Z,44.62
2023-01-01T01:49:45.509Z,41.70
2023-01-01T01:50:45.500Z,41.02
2023-01-01T01:51:45.471Z,43.85
2023-01-01T01:52:45.461Z,42.50
2023-01-01T01:53:45.448Z,43.21
2023-01-01T01:54:45.438Z,40.04
2023-01-01T01:55:45.445Z,42.76
2023-01-01T01:56:45.418Z,40.97
2023-01-01T01:57:45.402Z,45.37
2023-01-01T01:58:45.395Z,43.74
2023-01-01T01:59:45.392Z,41.46
2023-01-01T02:00:45.387Z,42.72
2023-01-01T02:01:45.517Z,44.96
2023-01-01T02:02:45.460Z,42.00
2023-01-01T02:03:45.344Z,34.94
2023-01-01T02:04:45.337Z,39.42
2023-01-01T02:05:45.335Z,45.40
2023-01-01T02:06:45.322Z,46.71
2023-01-01T02:07:45.312Z,41.71
2023-01-01T02:08:45.298Z,41.09
2023-01-01T02:09:45.290Z,44.40
2023-01-01T02:10:45.293Z,44.10
2023-01-01T02:11:45.270Z,41.27
2023-01-01T02:12:45.252Z,39.17
2023-01-01T02:13:45.246Z,39.78
2023-01-01T02:14:45.236Z,40.78
2023-01-01T02:15:45.253Z,41.44
2023-01-01T02:16:45.214Z,43.19
2023-01-01T02:17:45.205Z,40.01
2023-01-01T02:18:45.191Z,43.07
2023-01-01T02:19:45.180Z,43.78
2023-01-01T02:20:45.199Z,44.94
2023-01-01T02:21:45.159Z,42.93
2023-01-01T02:22:45.157Z,41.25
2023-01-01T02:23:45.175Z,41.54
2023-01-01T02:24:45.130Z,42.06
2023-01-01T02:25:45.136Z,40.09
2023-01-01T02:26:45.114Z,44.42
2023-01-01T02:27:45.105Z,40.87
2023-01-01T02:28:45.093Z,41.68
2023-01-01T02:29:45.095Z,42.29
2023-01-01T02:30:45.126Z,43.81
2023-01-01T02:31:46.123Z,42.79
2023-01-01T02:32:45.082Z,40.33
2023-01-01T02:33:45.039Z,42.69
2023-01-01T02:34:45.044Z,37.32
2023-01-01T02:35:45.035Z,43.77
2023-01-01T02:36:45.016Z,42.41
2023-01-01T02:37:45.004Z,39.57
2023-01-01T02:38:44.990Z,45.00
2023-01-01T02:39:44.984Z,46.59
2023-01-01T02:40:44.982Z,41.72
2023-01-01T02:41:45.030Z,40.74
2023-01-01T02:42:44.950Z,40.80
2023-01-01T02:43:44.944Z,42.14
2023-01-01T02:44:44.951Z,45.61
2023-01-01T02:45:44.931Z,39.41
2023-01-01T02:46:44.909Z,40.43
2023-01-01T02:47:44.902Z,41.07
2023-01-01T02:48:44.890Z,41.69
2023-01-01T02:49:44.880Z,41.55
2023-01-01T02:50:44.877Z,44.77
2023-01-01T02:51:44.869Z,40.09
2023-01-01T02:52:44.844Z,41.14
2023-01-01T02:53:44.845Z,40.87
2023-01-01T02:54:44.833Z,44.59
2023-01-01T02:55:44.833Z,46.05
2023-01-01T02:56:44.810Z,41.81
2023-01-01T02:57:44.808Z,43.15
2023-01-01T02:58:44.804Z,42.96
2023-01-01T02:59:44.781Z,41.27
2023-01-01T03:00:45.789Z,42.05
2023-01-01T03:01:44.885Z,40.62
2023-01-01T03:02:50.356Z,44.85
2023-01-01T03:03:46.781Z,43.04
2023-01-01T03:04:44.745Z,40.16
2023-01-01T03:05:44.746Z,42.53
2023-01-01T03:06:44.767Z,42.93
2023-01-01T03:07:44.702Z,40.98
2023-01-01T03:08:44.701Z,43.84
2023-01-01T03:09:44.781Z,41.56
2023-01-01T03:10:44.690Z,41.99
2023-01-01T03:11:44.669Z,42.70
2023-01-01T03:12:44.660Z,45.41
2023-01-01T03:13:44.657Z,39.64
2023-01-01T03:14:44.643Z,43.71
2023-01-01T03:15:44.659Z,43.30
2023-01-01T03:16:44.630Z,43.89
2023-01-01T03:17:44.610Z,42.38
2023-01-01T03:18:44.604Z,43.59
2023-01-01T03:19:44.589Z,39.94
2023-01-01T03:20:44.599Z,42.36
2023-01-01T03:21:44.583Z,40.35
2023-01-01T03:24:29.805Z,40.98
2023-01-01T03:25:29.802Z,36.88
2023-01-01T03:26:29.798Z,41.03
2023-01-01T03:27:29.784Z,44.20
2023-01-01T03:28:29.768Z,38.32
2023-01-01T03:29:29.758Z,39.10
2023-01-01T03:30:29.746Z,43.54
2023-01-01T03:31:29.784Z,45.53
2023-01-01T03:32:29.725Z,41.60
2023-01-01T03:33:29.717Z,39.70
2023-01-01T03:34:29.708Z,42.96
2023-01-01T03:35:29.698Z,42.50
2023-01-01T03:36:29.696Z,41.47
2023-01-01T03:37:29.679Z,38.58
2023-01-01T03:38:29.676Z,41.46
2023-01-01T03:39:29.660Z,43.68
2023-01-01T03:40:29.653Z,39.50
2023-01-01T03:41:29.671Z,44.12
2023-01-01T03:42:29.629Z,38.97
2023-01-01T03:43:29.623Z,42.03
2023-01-01T03:44:29.610Z,45.44
2023-01-01T03:45:29.610Z,44.73
2023-01-01T03:46:29.623Z,38.92
2023-01-01T03:47:29.584Z,36.86
2023-01-01T03:48:29.570Z,40.32
2023-01-01T03:49:29.560Z,39.27
2023-01-01T03:50:29.551Z,38.63
2023-01-01T03:51:29.596Z,39.15
2023-01-01T03:52:30.651Z,38.68
2023-01-01T03:53:30.635Z,39.58
2023-01-01T03:54:30.630Z,38.17
2023-01-01T03:55:30.615Z,42.46
2023-01-01T03:56:30.617Z,39.60
2023-01-01T03:57:30.603Z,42.26
2023-01-01T03:58:30.587Z,44.82
2023-01-01T03:59:30.576Z,43.14
2023-01-01T04:00:30.570Z,47.39
2023-01-01T04:01:30.606Z,39.81
2023-01-01T04:02:30.630Z,40.80
2023-01-01T04:03:30.600Z,42.95
2023-01-01T04:04:30.538Z,41.91
2023-01-01T04:05:30.534Z,46.12
2023-01-01T04:06:30.530Z,41.92
2023-01-01T04:07:30.508Z,40.10
2023-01-01T04:08:30.500Z,44.95
2023-01-01T04:09:30.487Z,41.85
2023-01-01T04:10:30.471Z,38.47
2023-01-01T04:11:30.488Z,34.93
2023-01-01T04:12:30.457Z,39.29
2023-01-01T04:13:30.450Z,44.70
2023-01-01T04:14:30.450Z,44.98
2023-01-01T04:15:30.429Z,47.16
2023-01-01T04:16:30.540Z,41.82
2023-01-01T04:17:30.481Z,41.63
2023-01-01T04:18:30.402Z,39.48
2023-01-01T04:19:30.412Z,39.34
2023-01-01T04:20:30.485Z,43.65
2023-01-01T04:21:30.395Z,41.34
2023-01-01T04:22:30.377Z,36.32
2023-01-01T04:23:30.383Z,43.04
2023-01-01T04:24:30.342Z,43.26
2023-01-01T04:25:30.394Z,42.41
2023-01-01T04:26:30.336Z,40.67
2023-01-01T04:27:30.318Z,42.53
2023-01-01T04:28:30.305Z,39.67
2023-01-01T04:29:30.308Z,36.24
2023-01-01T04:30:30.295Z,41.58
2023-01-01T04:31:30.296Z,42.09
2023-01-01T04:32:30.266Z,46.18
2023-01-01T04:33:30.263Z,40.27
2023-01-01T04:34:30.259Z,43.08
2023-01-01T04:35:30.239Z,39.08
2023-01-01T04:36:30.245Z,42.91
2023-01-01T04:37:30.223Z,36.88
2023-01-01T04:38:30.232Z,41.55
2023-01-01T04:39:30.204Z,42.26
2023-01-01T04:40:30.189Z,40.08
2023-01-01T04:41:30.192Z,41.34
2023-01-01T04:42:30.170Z,42.53
2023-01-01T04:43:30.156Z,44.28
2023-01-01T04:44:30.137Z,39.04
2023-01-01T04:45:31.162Z,41.80
2023-01-01T04:46:30.137Z,40.63
2023-01-01T04:47:30.119Z,40.82
2023-01-01T04:48:30.106Z,39.98
2023-01-01T04:49:30.100Z,38.36
2023-01-01T04:50:30.088Z,41.48
2023-01-01T04:51:30.088Z,42.25
2023-01-01T04:52:30.071Z,43.22
2023-01-01T04:53:30.055Z,43.60
2023-01-01T04:54:30.056Z,43.17
2023-01-01T04:55:30.043Z,39.24
2023-01-01T04:56:30.036Z,42.15
2023-01-01T04:57:30.034Z,42.16
2023-01-01T04:58:30.013Z,37.93
2023-01-01T04:59:29.994Z,44.32
2023-01-01T05:00:29.987Z,42.54
2023-01-01T05:01:30.055Z,43.42
2023-01-01T05:02:30.027Z,39.65
2023-01-01T05:03:29.986Z,46.75
2023-01-01T05:04:29.954Z,43.33
2023-01-01T05:05:29.942Z,39.80
2023-01-01T05:06:29.945Z,42.14
2023-01-01T05:07:29.925Z,42.97
2023-01-01T05:08:29.919Z,41.51
2023-01-01T05:09:29.904Z,39.14
2023-01-01T05:10:29.895Z,37.94
2023-01-01T05:11:29.889Z,45.39
2023-01-01T05:12:29.873Z,37.54
2023-01-01T05:13:29.858Z,40.63
2023-01-01T05:14:29.843Z,41.12
2023-01-01T05:15:29.840Z,38.54
2023-01-01T05:16:29.925Z,38.50
2023-01-01T05:17:29.817Z,42.18
2023-01-01T05:18:29.808Z,44.04
2023-01-01T05:19:29.798Z,43.31
2023-01-01T05:20:29.796Z,39.39
2023-01-01T05:21:29.789Z,42.37
2023-01-01T05:22:29.763Z,39.97
2023-01-01T05:23:29.749Z,41.00
2023-01-01T05:24:29.747Z,41.12
2023-01-01T05:25:29.740Z,38.85
2023-01-01T05:26:29.735Z,39.69
2023-01-01T05:27:29.720Z,41.01
2023-01-01T05:28:29.711Z,42.67
2023-01-01T05:29:29.694Z,41.95
2023-01-01T05:30:29.684Z,39.11
2023-01-01T05:31:29.756Z,41.89
2023-01-01T05:32:29.657Z,37.53
2023-01-01T05:33:30.658Z,42.05
2023-01-01T05:36:15.463Z,37.20
2023-01-01T05:37:15.448Z,44.63
2023-01-01T05:38:15.427Z,36.88
2023-01-01T05:39:15.412Z,42.94
2023-01-01T05:40:15.400Z,43.28
2023-01-01T05:41:15.396Z,39.87
2023-01-01T05:42:15.401Z,43.96
2023-01-01T05:43:15.370Z,40.00
2023-01-01T05:44:15.362Z,40.43
2023-01-01T05:45:15.352Z,42.89
2023-01-01T05:46:15.381Z,39.78
2023-01-01T05:47:15.350Z,43.27
2023-01-01T05:48:15.330Z,36.40
2023-01-01T05:49:15.311Z,39.44
2023-01-01T05:50:15.303Z,40.92
2023-01-01T05:51:15.294Z,41.31
2023-01-01T05:52:15.296Z,39.53
2023-01-01T05:53:15.270Z,40.58
2023-01-01T05:56:01.576Z,39.84
2023-01-01T05:57:01.621Z,42.07
2023-01-01T05:58:01.562Z,40.63
2023-01-01T05:59:08.565Z,39.64
2023-01-01T06:00:01.545Z,37.40
2023-01-01T06:01:01.577Z,41.11
2023-01-01T06:02:01.653Z,38.02
2023-01-01T06:03:01.512Z,38.39
2023-01-01T06:04:01.540Z,38.89
2023-01-01T06:05:01.497Z,36.96
2023-01-01T06:06:01.482Z,40.93
2023-01-01T06:07:01.489Z,41.80
2023-01-01T06:08:01.463Z,39.97
2023-01-01T06:09:01.457Z,38.38
2023-01-01T06:10:01.457Z,40.98
2023-01-01T06:11:01.452Z,38.63
2023-01-01T06:12:01.438Z,41.47
2023-01-01T06:13:01.423Z,41.91
2023-01-01T06:14:01.409Z,38.91
2023-01-01T06:15:01.397Z,38.42
2023-01-01T06:16:01.391Z,40.59
2023-01-01T06:17:01.414Z,40.43
2023-01-01T06:18:01.367Z,43.75
2023-01-01T06:19:02.481Z,38.99
2023-01-01T06:20:02.494Z,40.24
2023-01-01T06:21:02.459Z,39.83
2023-01-01T06:22:02.462Z,37.87
2023-01-01T06:23:02.435Z,39.46
2023-01-01T06:24:02.419Z,39.44
2023-01-01T06:25:02.427Z,39.81
2023-01-01T06:26:02.405Z,40.24
2023-01-01T06:27:02.413Z,42.86
2023-01-01T06:28:02.391Z,43.65
2023-01-01T06:29:02.387Z,39.42
2023-01-01T06:30:02.374Z,41.28
2023-01-01T06:31:02.466Z,41.92
2023-01-01T06:32:02.354Z,38.65
2023-01-01T06:33:02.334Z,38.32
2023-01-01T06:34:02.332Z,41.56
2023-01-01T06:35:02.326Z,39.73
2023-01-01T06:36:02.307Z,39.73
2023-01-01T06:37:06.802Z,39.56
2023-01-01T06:38:03.287Z,44.51
2023-01-01T06:39:02.276Z,39.85
2023-01-01T06:40:02.268Z,36.18
2023-01-01T06:41:02.271Z,40.81
2023-01-01T06:42:02.258Z,37.66
2023-01-01T06:43:02.262Z,42.51
2023-01-01T06:44:02.368Z,41.56
2023-01-01T06:45:02.221Z,41.20
2023-01-01T06:46:02.279Z,37.05
2023-01-01T06:47:02.218Z,39.39
2023-01-01T06:48:02.191Z,39.94
2023-01-01T06:49:02.178Z,43.02
2023-01-01T06:50:02.173Z,43.61
2023-01-01T06:51:02.175Z,42.54
2023-01-01T06:52:02.158Z,35.51
2023-01-01T06:53:02.141Z,42.11
2023-01-01T06:54:02.142Z,44.16
2023-01-01T06:55:02.122Z,39.07
2023-01-01T06:56:02.115Z,41.46
2023-01-01T06:57:02.124Z,42.02
2023-01-01T06:58:02.090Z,38.26
2023-01-01T06:59:02.086Z,41.44
2023-01-01T07:00:02.117Z,41.45
2023-01-01T07:01:07.847Z,38.95
2023-01-01T07:02:04.194Z,35.80
2023-01-01T07:03:02.298Z,41.66
2023-01-01T07:04:02.033Z,40.77
2023-01-01T07:05:02.018Z,41.29
2023-01-01T07:06:02.020Z,40.30
2023-01-01T07:07:02.016Z,43.66
2023-01-01T07:08:01.992Z,42.60
2023-01-01T07:09:01.993Z,38.51
2023-01-01T07:10:02.007Z,41.32
2023-01-01T07:11:01.964Z,39.91
2023-01-01T07:12:02.050Z,39.53
2023-01-01T07:13:01.945Z,41.09
2023-01-01T07:14:01.944Z,40.30
2023-01-01T07:15:01.936Z,36.19
2023-01-01T07:16:05.337Z,41.80
2023-01-01T07:17:02.920Z,40.59
2023-01-01T07:18:01.899Z,43.62
2023-01-01T07:19:01.920Z,40.14
2023-01-01T07:20:01.876Z,38.59
2023-01-01T07:21:01.872Z,39.61
2023-01-01T07:22:01.888Z,41.14
2023-01-01T07:23:02.846Z,39.20
2023-01-01T07:24:01.870Z,43.27
2023-01-01T07:25:01.833Z,38.89
2023-01-01T07:26:01.821Z,40.81
2023-01-01T07:27:01.824Z,44.12
2023-01-01T07:28:01.804Z,38.35
2023-01-01T07:29:07.595Z,38.67
2023-01-01T07:30:03.791Z,40.86
2023-01-01T07:31:01.821Z,44.33
2023-01-01T07:32:01.778Z,43.34
2023-01-01T07:33:01.751Z,44.28
2023-01-01T07:34:01.744Z,44.20
2023-01-01T07:35:01.731Z,40.82
2023-01-01T07:36:01.721Z,44.04
2023-01-01T07:37:01.729Z,40.70
2023-01-01T07:38:01.703Z,42.56
2023-01-01T07:39:01.701Z,43.25
2023-01-01T07:40:01.686Z,38.59
2023-01-01T07:41:01.678Z,41.54
2023-01-01T07:42:04.886Z,43.17
2023-01-01T07:43:03.653Z,41.46
2023-01-01T07:44:01.646Z,40.97
2023-01-01T07:45:01.636Z,43.02
2023-01-01T07:46:01.634Z,41.92
2023-01-01T07:47:01.623Z,44.06
2023-01-01T07:48:01.608Z,42.18
2023-01-01T07:49:01.591Z,44.48
2023-01-01T07:50:01.594Z,41.16
2023-01-01T07:51:01.577Z,42.01
2023-01-01T07:52:01.586Z,44.98
2023-01-01T07:53:01.565Z,43.68
2023-01-01T07:54:06.734Z,41.07
2023-01-01T07:55:03.536Z,41.72
2023-01-01T07:56:01.532Z,39.47
2023-01-01T07:57:01.527Z,42.78
2023-01-01T07:58:01.516Z,42.23
2023-01-01T07:59:01.523Z,44.44
2023-01-01T08:00:01.495Z,45.55
2023-01-01T08:01:01.656Z,45.36
2023-01-01T08:02:01.608Z,46.63
2023-01-01T08:03:01.639Z,42.41
2023-01-01T08:04:01.459Z,44.36
2023-01-01T08:05:01.448Z,45.68
2023-01-01T08:06:01.439Z,44.97
2023-01-01T08:07:01.446Z,42.48
2023-01-01T08:08:01.434Z,45.48
2023-01-01T08:09:01.429Z,44.17
2023-01-01T08:10:01.427Z,42.80
2023-01-01T08:11:03.815Z,42.81
2023-01-01T08:12:02.405Z,42.57
2023-01-01T08:13:01.384Z,43.35
2023-01-01T08:14:01.405Z,45.14
2023-01-01T08:15:01.373Z,42.28
2023-01-01T08:16:01.406Z,43.15
2023-01-01T08:17:01.340Z,43.62
2023-01-01T08:18:01.335Z,43.05
2023-01-01T08:19:01.319Z,40.81
2023-01-01T08:20:01.401Z,43.65
2023-01-01T08:21:01.337Z,43.60
2023-01-01T08:22:01.332Z,45.03
2023-01-01T08:23:06.742Z,41.42
2023-01-01T08:24:03.312Z,43.21
2023-01-01T08:25:01.267Z,44.79
2023-01-01T08:26:01.268Z,43.11
2023-01-01T08:27:01.244Z,42.39
2023-01-01T08:28:01.260Z,44.64
2023-01-01T08:29:01.240Z,43.18
2023-01-01T08:30:01.245Z,43.11
2023-01-01T08:31:01.294Z,42.44
2023-01-01T08:32:01.197Z,43.94
2023-01-01T08:33:01.197Z,42.91
2023-01-01T08:34:01.180Z,44.51
2023-01-01T08:35:01.161Z,41.42
2023-01-01T08:36:01.155Z,42.40
2023-01-01T08:37:01.149Z,45.21
2023-01-01T08:38:01.149Z,44.00
2023-01-01T08:39:01.122Z,42.96
2023-01-01T08:40:01.119Z,45.40
2023-01-01T08:41:01.103Z,44.26
2023-01-01T08:42:01.098Z,47.55
2023-01-01T08:43:01.108Z,46.50
2023-01-01T08:44:01.075Z,43.89
2023-01-01T08:45:01.066Z,44.49
2023-01-01T08:46:01.072Z,47.03
2023-01-01T08:47:01.086Z,44.96
2023-01-01T08:48:01.042Z,46.03
2023-01-01T08:49:01.028Z,45.82
2023-01-01T08:50:01.038Z,44.08
2023-01-01T08:51:01.040Z,45.03
2023-01-01T08:52:00.995Z,42.87
2023-01-01T08:53:01.000Z,44.89
2023-01-01T08:54:00.967Z,45.29
2023-01-01T08:55:00.965Z,47.09
2023-01-01T08:56:00.969Z,46.24
2023-01-01T08:57:00.940Z,47.81
2023-01-01T08:58:00.943Z,46.00
2023-01-01T08:59:04.052Z,45.86
2023-01-01T09:00:01.913Z,45.40
2023-01-01T09:01:00.942Z,48.30
2023-01-01T09:02:01.038Z,42.33
2023-01-01T09:03:01.109Z,46.12
2023-01-01T09:04:00.870Z,41.76
2023-01-01T09:05:00.871Z,45.23
2023-01-01T09:06:00.848Z,45.49
2023-01-01T09:07:00.832Z,45.91
2023-01-01T09:08:00.836Z,45.88
2023-01-01T09:09:00.836Z,46.65
2023-01-01T09:10:00.826Z,46.34
2023-01-01T09:11:00.800Z,44.65
2023-01-01T09:12:00.795Z,46.31
2023-01-01T09:13:00.790Z,48.01
2023-01-01T09:14:00.773Z,44.99
2023-01-01T09:15:00.781Z,46.85
2023-01-01T09:16:00.844Z,45.52
2023-01-01T09:17:00.803Z,47.11
2023-01-01T09:18:00.740Z,45.34
2023-01-01T09:19:00.721Z,46.19
2023-01-01T09:20:00.723Z,46.49
2023-01-01T09:21:00.699Z,45.88
2023-01-01T09:22:00.711Z,43.86
2023-01-01T09:23:05.721Z,45.76
2023-01-01T09:24:02.667Z,44.91
2023-01-01T09:25:00.665Z,46.15
2023-01-01T09:26:00.656Z,47.61
2023-01-01T09:27:00.640Z,44.73
2023-01-01T09:28:00.641Z,46.02
2023-01-01T09:29:00.620Z,45.52
2023-01-01T09:30:00.603Z,45.82
2023-01-01T09:31:01.597Z,46.43
2023-01-01T09:32:00.760Z,45.31
2023-01-01T09:33:00.596Z,46.83
2023-01-01T09:34:00.585Z,46.53
2023-01-01T09:35:00.558Z,46.90
2023-01-01T09:36:00.548Z,47.11
2023-01-01T09:37:00.548Z,46.97
2023-01-01T09:38:00.540Z,46.60
2023-01-01T09:39:00.539Z,46.03
2023-01-01T09:40:00.516Z,46.43
2023-01-01T09:41:00.505Z,46.78
2023-01-01T09:42:00.479Z,45.56
2023-01-01T09:43:01.499Z,45.45
2023-01-01T09:44:00.463Z,47.36
2023-01-01T09:45:00.476Z,47.19
2023-01-01T09:46:00.475Z,47.61
2023-01-01T09:47:00.437Z,48.51
2023-01-01T09:48:00.444Z,47.94
2023-01-01T09:49:00.421Z,47.34
2023-01-01T09:50:00.414Z,47.74
2023-01-01T09:51:00.394Z,48.51
2023-01-01T09:52:00.390Z,48.48
2023-01-01T09:53:00.390Z,47.54
2023-01-01T09:54:00.367Z,47.87
2023-01-01T09:55:00.368Z,47.97
2023-01-01T09:56:00.343Z,47.35
2023-01-01T09:57:00.350Z,46.36
2023-01-01T09:58:00.346Z,47.94
2023-01-01T09:59:00.319Z,47.11
2023-01-01T10:00:00.329Z,48.15
2023-01-01T10:01:00.414Z,46.56
2023-01-01T10:02:00.409Z,47.40
2023-01-01T10:03:00.300Z,47.36
2023-01-01T10:04:00.303Z,47.80
2023-01-01T10:05:00.264Z,46.07
2023-01-01T10:06:00.241Z,45.68
2023-01-01T10:07:00.232Z,47.69
2023-01-01T10:08:00.228Z,48.01
2023-01-01T10:09:00.210Z,48.22
2023-01-01T10:10:00.203Z,46.02
2023-01-01T10:11:00.192Z,45.57
2023-01-01T10:12:00.188Z,46.74
2023-01-01T10:13:00.180Z,48.11
2023-01-01T10:14:00.158Z,49.18
2023-01-01T10:15:01.160Z,48.01
2023-01-01T10:16:01.141Z,49.52
2023-01-01T10:17:00.187Z,48.45
2023-01-01T10:18:00.131Z,50.35
2023-01-01T10:19:00.111Z,47.05
2023-01-01T10:20:00.114Z,50.09
2023-01-01T10:21:00.125Z,47.28
2023-01-01T10:22:00.097Z,47.75
2023-01-01T10:23:00.103Z,48.01
2023-01-01T10:24:00.078Z,49.10
2023-01-01T10:25:00.044Z,49.76
2023-01-01T10:26:00.044Z,47.86
2023-01-01T10:27:00.100Z,48.99
2023-01-01T10:28:00.089Z,49.22
2023-01-01T10:29:00.010Z,49.65
2023-01-01T10:30:04.279Z,49.62
2023-01-01T10:31:01.985Z,47.09
2023-01-01T10:32:00.024Z,49.57
2023-01-01T10:32:59.982Z,49.05
2023-01-01T10:33:59.948Z,49.38
2023-01-01T10:34:59.943Z,49.94
2023-01-01T10:35:59.936Z,49.37
2023-01-01T10:36:59.930Z,50.12
2023-01-01T10:37:59.946Z,50.02
2023-01-01T10:38:59.899Z,49.52
2023-01-01T10:39:59.888Z,50.69
2023-01-01T10:40:59.883Z,51.62
2023-01-01T10:41:59.874Z,51.11
2023-01-01T10:42:59.891Z,49.49
2023-01-01T10:43:59.858Z,49.46
2023-01-01T10:44:59.853Z,49.32
2023-01-01T10:45:59.864Z,47.61
2023-01-01T10:46:59.828Z,49.06
2023-01-01T10:47:59.825Z,49.89
2023-01-01T10:48:59.812Z,50.14
2023-01-01T10:49:59.796Z,49.28
2023-01-01T10:50:59.791Z,50.22
2023-01-01T10:51:59.766Z,50.13
2023-01-01T10:52:59.776Z,49.29
2023-01-01T10:53:59.760Z,50.50
2023-01-01T10:54:59.794Z,48.98
2023-01-01T10:55:59.729Z,50.81
2023-01-01T10:56:59.741Z,50.66
2023-01-01T10:57:59.739Z,50.10
2023-01-01T10:58:59.700Z,51.92
2023-01-01T10:59:59.684Z,45.69
2023-01-01T11:00:59.754Z,49.63
2023-01-01T11:01:59.808Z,50.04
2023-01-01T11:02:59.680Z,49.83
2023-01-01T11:03:59.657Z,50.54
2023-01-01T11:04:59.641Z,49.80
2023-01-01T11:05:59.624Z,48.98
2023-01-01T11:06:59.620Z,50.17
2023-01-01T11:07:59.613Z,50.06
2023-01-01T11:08:59.605Z,50.11
2023-01-01T11:10:03.459Z,51.45
2023-01-01T11:11:00.584Z,50.09
2023-01-01T11:12:05.369Z,49.67
2023-01-01T11:13:05.856Z,51.74
2023-01-01T11:14:00.566Z,50.46
2023-01-01T11:14:59.548Z,48.61
2023-01-01T11:15:59.533Z,51.14
2023-01-01T11:16:59.563Z,51.77
2023-01-01T11:17:59.513Z,50.65
2023-01-01T11:18:59.526Z,49.16
2023-01-01T11:20:02.114Z,50.56
2023-01-01T11:21:00.493Z,51.08
2023-01-01T11:21:59.507Z,50.06
2023-01-01T11:22:59.473Z,51.37
2023-01-01T11:23:59.470Z,51.50
2023-01-01T11:24:59.441Z,49.42
2023-01-01T11:25:59.439Z,48.94
2023-01-01T11:26:59.423Z,50.87
2023-01-01T11:27:59.414Z,52.04
2023-01-01T11:28:59.412Z,51.14
2023-01-01T11:29:59.394Z,52.83
2023-01-01T11:30:59.465Z,50.15
2023-01-01T11:31:59.372Z,51.57
2023-01-01T11:32:59.365Z,50.48
2023-01-01T11:33:59.365Z,50.82
2023-01-01T11:34:59.345Z,51.96
2023-01-01T11:35:59.335Z,51.14
2023-01-01T11:36:59.320Z,51.64
2023-01-01T11:37:59.321Z,50.62
2023-01-01T11:38:59.316Z,52.18
2023-01-01T11:39:59.307Z,50.86
2023-01-01T11:40:59.283Z,52.24
2023-01-01T11:41:59.274Z,51.60
2023-01-01T11:42:59.284Z,50.76
2023-01-01T11:43:59.260Z,51.15
2023-01-01T11:44:59.237Z,50.75
2023-01-01T11:45:59.272Z,49.73
2023-01-01T11:46:59.224Z,50.25
2023-01-01T11:47:59.211Z,53.80
2023-01-01T11:48:59.339Z,52.72
2023-01-01T11:49:59.189Z,51.56
2023-01-01T11:50:59.177Z,53.54
2023-01-01T11:51:59.167Z,50.19
2023-01-01T11:52:59.167Z,51.06
2023-01-01T11:53:59.181Z,52.77
2023-01-01T11:54:59.888Z,51.46
2023-01-01T11:55:59.134Z,51.30
2023-01-01T11:56:59.113Z,50.85
2023-01-01T11:57:59.114Z,50.50
2023-01-01T11:58:59.129Z,51.68
2023-01-01T12:00:25.030Z,50.36
2023-01-01T12:00:59.075Z,50.65
2023-01-01T12:01:59.062Z,51.66
2023-01-01T12:02:59.114Z,52.17
2023-01-01T12:03:59.077Z,50.77
2023-01-01T12:04:59.034Z,52.48
2023-01-01T12:05:59.025Z,51.94
2023-01-01T12:06:59.025Z,52.68
2023-01-01T12:07:59.006Z,52.47
2023-01-01T12:08:58.999Z,51.84
2023-01-01T12:09:58.996Z,51.86
2023-01-01T12:10:58.966Z,52.51
2023-01-01T12:11:58.955Z,51.33
2023-01-01T12:12:58.947Z,51.86
2023-01-01T12:13:58.945Z,53.35
2023-01-01T12:14:58.933Z,51.85
2023-01-01T12:15:58.954Z,53.03
2023-01-01T12:16:58.909Z,51.93
2023-01-01T12:17:58.897Z,51.96
2023-01-01T12:18:58.898Z,53.54
2023-01-01T12:19:58.880Z,50.91
2023-01-01T12:20:58.868Z,50.39
2023-01-01T12:21:58.856Z,52.94
2023-01-01T12:22:58.859Z,52.52
2023-01-01T12:23:58.847Z,53.63
2023-01-01T12:24:58.826Z,51.81
2023-01-01T12:25:58.818Z,52.00
2023-01-01T12:26:58.803Z,53.48
2023-01-01T12:27:58.792Z,51.03
2023-01-01T12:28:58.795Z,51.64
2023-01-01T12:29:58.774Z,54.85
2023-01-01T12:30:58.791Z,52.95
2023-01-01T12:31:58.755Z,53.04
2023-01-01T12:33:02.207Z,53.55
2023-01-01T12:34:00.754Z,51.62
2023-01-01T12:34:58.727Z,52.81
2023-01-01T12:35:58.722Z,52.37
2023-01-01T12:36:58.704Z,52.55
2023-01-01T12:37:58.696Z,53.04
2023-01-01T12:38:58.692Z,52.57
2023-01-01T12:39:58.673Z,51.05
2023-01-01T12:40:58.743Z,51.91
2023-01-01T12:41:58.652Z,51.85
2023-01-01T12:42:58.646Z,52.11
2023-01-01T12:43:58.640Z,52.72
2023-01-01T12:44:58.839Z,52.87
2023-01-01T12:45:58.645Z,53.00
2023-01-01T12:46:58.602Z,52.37
2023-01-01T12:47:58.589Z,52.00
2023-01-01T12:48:58.621Z,51.45
2023-01-01T12:49:58.565Z,52.36
2023-01-01T12:51:04.750Z,51.69
2023-01-01T12:52:00.549Z,52.45
2023-01-01T12:52:59.537Z,52.46
2023-01-01T12:53:58.647Z,53.82
2023-01-01T12:54:58.527Z,53.25
2023-01-01T12:55:58.511Z,53.56
2023-01-01T12:56:58.518Z,51.80
2023-01-01T12:57:58.499Z,53.86